Time;durP1;ratioP1;P1;durP2;ratioP2;P2;SDS_P1;SDS_P2;PMS_P1;PMS_P2;Temp;Humidity;BMP_temperature;BMP_pressure;BME280_temperature;BME280_humidity;BME280_pressure;Samples;Min_cycle;Max_cycle;Signal;HPM_P1;HPM_P2
2023/06/06 00:02:19;;;;;;;9.77;6.90;;;;;;;13.50;76.19;101884.09;5010738;28;20061;-75
2023/06/06 00:05:07;;;;;;;9.82;6.57;;;;;;;13.46;76.58;101890.41;5025355;28;20129;-75
2023/06/06 00:07:53;;;;;;;13.75;7.47;;;;;;;13.43;76.65;101886.03;5026891;28;20061;-76
2023/06/06 00:10:38;;;;;;;12.15;6.82;;;;;;;13.39;76.63;101883.47;5028992;28;20169;-76
2023/06/06 00:13:27;;;;;;;14.48;6.90;;;;;;;13.35;77.35;101882.69;5020515;28;20046;-76
2023/06/06 00:16:14;;;;;;;10.02;6.60;;;;;;;13.29;77.22;101882.84;5027202;28;20080;-77
2023/06/06 00:19:01;;;;;;;11.40;6.72;;;;;;;13.23;77.37;101888.31;5027952;28;20042;-76
2023/06/06 00:21:46;;;;;;;11.00;6.40;;;;;;;13.15;77.60;101881.41;5027531;28;20522;-75
2023/06/06 00:24:32;;;;;;;11.18;7.05;;;;;;;13.10;77.82;101880.66;5019481;28;20062;-74
2023/06/06 00:27:17;;;;;;;12.93;6.88;;;;;;;13.09;78.16;101873.63;5023681;28;20042;-75
2023/06/06 00:30:05;;;;;;;12.55;7.20;;;;;;;13.02;78.27;101888.78;5029395;28;20133;-75
2023/06/06 00:32:51;;;;;;;12.55;6.93;;;;;;;12.93;78.19;101886.34;5012744;28;20507;-74
2023/06/06 00:35:37;;;;;;;13.45;7.38;;;;;;;12.88;78.72;101890.88;5010055;28;20042;-74
2023/06/06 00:38:22;;;;;;;13.80;7.47;;;;;;;12.87;78.61;101883.88;5018415;28;20050;-74
2023/06/06 00:41:07;;;;;;;10.35;7.22;;;;;;;12.81;78.98;101891.94;5028023;28;20672;-74
2023/06/06 00:43:53;;;;;;;13.63;7.05;;;;;;;12.79;78.73;101891.97;5028440;28;20042;-74
2023/06/06 00:46:40;;;;;;;10.70;7.82;;;;;;;12.73;79.01;101887.69;5011662;28;20774;-74
2023/06/06 00:49:26;;;;;;;9.73;7.03;;;;;;;12.69;78.92;101896.59;5013109;28;20049;-74
2023/06/06 00:52:12;;;;;;;10.98;7.30;;;;;;;12.70;79.13;101900.13;5010441;28;20054;-74
2023/06/06 00:54:58;;;;;;;10.88;6.80;;;;;;;12.64;79.11;101901.13;5011631;28;20050;-74
2023/06/06 00:57:47;;;;;;;11.75;6.63;;;;;;;12.61;79.25;101895.91;5012826;28;20054;-74
2023/06/06 01:00:33;;;;;;;13.60;7.25;;;;;;;12.55;79.34;101894.25;5026106;28;20042;-74
2023/06/06 01:03:20;;;;;;;10.75;7.32;;;;;;;12.52;79.67;101898.75;5020359;28;20510;-73
2023/06/06 01:06:08;;;;;;;12.40;7.38;;;;;;;12.51;79.54;101899.66;5006688;28;20053;-73
2023/06/06 01:08:56;;;;;;;12.82;7.25;;;;;;;12.49;79.56;101891.75;5025047;28;20470;-73
2023/06/06 01:12:23;;;;;;;10.70;6.85;;;;;;;12.45;79.61;101897.16;5027963;28;20046;-73
2023/06/06 01:15:22;;;;;;;18.02;7.97;;;;;;;12.39;79.68;101896.34;5019720;28;20054;-73
2023/06/06 01:18:11;;;;;;;10.25;7.18;;;;;;;12.30;79.96;101895.69;5011222;28;20050;-73
2023/06/06 01:20:58;;;;;;;10.25;6.50;;;;;;;12.28;80.22;101895.72;5002628;28;20045;-72
2023/06/06 01:23:45;;;;;;;11.75;7.25;;;;;;;12.16;80.44;101890.69;5028998;28;20534;-73
2023/06/06 01:26:31;;;;;;;10.40;6.78;;;;;;;12.11;80.70;101886.34;5025973;28;20632;-73
2023/06/06 01:29:16;;;;;;;11.75;7.65;;;;;;;12.07;81.06;101892.59;5024069;28;20123;-72
2023/06/06 01:32:30;;;;;;;12.60;7.53;;;;;;;12.02;80.90;101891.81;5020994;28;20902;-74
2023/06/06 01:35:40;;;;;;;11.73;7.32;;;;;;;11.96;80.83;101891.91;5011080;28;20486;-73
2023/06/06 01:38:34;;;;;;;13.35;7.43;;;;;;;11.98;80.96;101895.41;5026090;28;20042;-74
2023/06/06 01:41:23;;;;;;;13.80;7.13;;;;;;;11.94;81.24;101891.06;5020041;28;20505;-75
2023/06/06 01:44:11;;;;;;;11.32;6.88;;;;;;;11.85;81.67;101889.47;5028144;28;20061;-74
2023/06/06 01:46:56;;;;;;;11.38;6.97;;;;;;;11.79;81.62;101890.47;5013302;28;20041;-75
2023/06/06 01:49:44;;;;;;;12.60;7.45;;;;;;;11.77;81.85;101888.75;5011761;28;20111;-75
2023/06/06 01:52:34;;;;;;;11.02;7.50;;;;;;;11.73;81.94;101887.06;5022751;28;20046;-76
2023/06/06 01:55:20;;;;;;;10.80;6.47;;;;;;;11.68;82.28;101891.56;5012359;28;20523;-75
2023/06/06 01:58:06;;;;;;;10.55;7.43;;;;;;;11.64;82.49;101891.59;5024656;28;20078;-75
2023/06/06 02:00:52;;;;;;;12.10;7.00;;;;;;;11.63;82.60;101889.88;5011448;28;20053;-75
2023/06/06 02:03:37;;;;;;;11.52;7.72;;;;;;;11.58;82.72;101898.75;5026706;28;20741;-75
2023/06/06 02:06:23;;;;;;;10.35;6.70;;;;;;;11.54;82.86;101890.03;5022855;28;20053;-74
2023/06/06 02:09:08;;;;;;;11.68;7.85;;;;;;;11.48;83.01;101883.09;5009653;28;20058;-74
2023/06/06 02:11:54;;;;;;;13.43;7.70;;;;;;;11.45;83.25;101885.78;4996914;28;20046;-74
2023/06/06 02:14:39;;;;;;;12.30;7.40;;;;;;;11.41;83.68;101881.47;5023749;28;20042;-74
2023/06/06 02:17:24;;;;;;;11.40;7.15;;;;;;;11.39;83.62;101892.94;4992856;28;20050;-74
2023/06/06 02:20:11;;;;;;;12.15;7.30;;;;;;;11.33;83.56;101883.38;5008324;28;20057;-74
2023/06/06 02:22:56;;;;;;;10.95;7.38;;;;;;;11.32;83.84;101879.84;5021808;28;20592;-74
2023/06/06 02:25:42;;;;;;;11.52;7.75;;;;;;;11.26;83.91;101879.94;5022854;28;20482;-74
2023/06/06 02:28:30;;;;;;;12.23;7.55;;;;;;;11.23;83.83;101890.56;5015529;28;20054;-74
2023/06/06 02:31:16;;;;;;;11.18;7.72;;;;;;;11.23;84.26;101887.06;5024877;28;20648;-74
2023/06/06 02:34:03;;;;;;;11.07;7.25;;;;;;;11.22;84.17;101888.81;5024424;28;20051;-74
2023/06/06 02:36:51;;;;;;;12.50;7.72;;;;;;;11.19;84.17;101889.72;5023708;28;20096;-74
2023/06/06 02:39:36;;;;;;;11.90;7.53;;;;;;;11.14;84.14;101891.56;5023402;28;22222;-73
2023/06/06 02:42:22;;;;;;;12.15;7.43;;;;;;;11.13;84.38;101883.69;5013288;28;20137;-74
2023/06/06 02:45:10;;;;;;;12.65;7.78;;;;;;;11.09;84.11;101885.50;5008214;28;20045;-73
2023/06/06 02:47:55;;;;;;;11.30;7.50;;;;;;;11.07;84.44;101886.44;5007077;28;21332;-73
2023/06/06 02:50:40;;;;;;;12.05;7.45;;;;;;;11.01;84.48;101885.59;5025920;28;20054;-74
2023/06/06 02:53:27;;;;;;;11.48;7.88;;;;;;;10.97;84.87;101883.94;5011106;28;20991;-75
2023/06/06 02:56:14;;;;;;;10.93;7.07;;;;;;;10.96;85.00;101890.09;5023606;28;20054;-75
2023/06/06 02:58:59;;;;;;;11.15;7.28;;;;;;;10.91;84.86;101888.44;5005177;28;20534;-73
2023/06/06 03:01:45;;;;;;;11.93;7.22;;;;;;;10.88;85.15;101884.94;5012321;28;20049;-74
2023/06/06 03:04:30;;;;;;;10.32;7.20;;;;;;;10.90;85.02;101890.16;5005070;28;20650;-76
2023/06/06 03:07:16;;;;;;;13.25;7.28;;;;;;;10.91;84.90;101891.06;5009353;28;20046;-75
2023/06/06 03:10:03;;;;;;;10.88;7.60;;;;;;;10.92;84.86;101887.53;4997141;28;20049;-75
2023/06/06 03:12:54;;;;;;;12.55;7.53;;;;;;;10.90;85.09;101892.81;5015029;28;20165;-74
2023/06/06 03:15:46;;;;;;;12.40;8.20;;;;;;;10.85;85.18;101892.03;5008103;28;20050;-74
2023/06/06 03:18:33;;;;;;;13.18;7.88;;;;;;;10.84;85.18;101892.91;5017514;28;20505;-74
2023/06/06 03:21:24;;;;;;;12.43;8.13;;;;;;;10.82;84.77;101884.16;5024179;28;20892;-74
2023/06/06 03:24:10;;;;;;;10.75;7.55;;;;;;;10.80;84.89;101891.19;5011326;28;20053;-73
2023/06/06 03:26:56;;;;;;;15.68;7.28;;;;;;;10.80;85.03;101893.84;5025281;28;20042;-73
2023/06/06 03:29:42;;;;;;;10.57;7.00;;;;;;;10.84;85.02;101895.56;5026244;28;20089;-74
2023/06/06 03:32:28;;;;;;;11.82;7.70;;;;;;;10.83;85.00;101894.69;5022477;28;20054;-74
2023/06/06 03:35:16;;;;;;;13.05;7.63;;;;;;;10.80;84.99;101899.13;5025738;28;20050;-74
2023/06/06 03:38:03;;;;;;;13.93;8.10;;;;;;;10.77;85.40;101900.03;5010303;28;20047;-74
2023/06/06 03:40:49;;;;;;;13.27;7.82;;;;;;;10.84;85.25;101896.41;5010749;28;20045;-74
2023/06/06 03:43:35;;;;;;;11.65;7.60;;;;;;;10.86;84.93;101899.91;5015680;28;20046;-75
2023/06/06 03:46:21;;;;;;;11.18;7.97;;;;;;;10.94;84.79;101902.44;5011331;28;20117;-75
2023/06/06 03:49:07;;;;;;;12.88;8.27;;;;;;;10.93;84.62;101894.56;5027644;28;20058;-75
2023/06/06 03:51:53;;;;;;;12.68;7.70;;;;;;;10.93;84.73;101895.41;5026235;28;20106;-74
2023/06/06 03:54:39;;;;;;;9.27;7.03;;;;;;;11.03;84.34;101897.00;5029846;28;20038;-74
2023/06/06 03:57:25;;;;;;;11.95;7.65;;;;;;;11.14;83.92;101901.25;5014168;28;20054;-75
2023/06/06 04:00:13;;;;;;;12.77;7.95;;;;;;;11.13;83.71;101895.13;5013948;28;20054;-74
2023/06/06 04:03:00;;;;;;;12.30;7.40;;;;;;;11.06;84.06;101906.66;5013020;28;20549;-74
2023/06/06 04:05:48;;;;;;;15.02;8.02;;;;;;;11.01;84.19;101898.81;5012000;28;20058;-75
2023/06/06 04:08:35;;;;;;;17.17;8.43;;;;;;;11.01;84.47;101897.94;5014292;28;20041;-74
2023/06/06 04:11:21;;;;;;;12.45;7.50;;;;;;;11.00;84.48;101899.69;5027728;28;20105;-73
2023/06/06 04:14:06;;;;;;;13.63;8.05;;;;;;;10.99;84.72;101897.94;5014492;28;20050;-74
2023/06/06 04:16:52;;;;;;;12.73;7.72;;;;;;;11.02;84.66;101900.53;5026521;28;20042;-74
2023/06/06 04:19:38;;;;;;;14.10;7.55;;;;;;;11.07;84.49;101899.63;5009827;28;20137;-74
2023/06/06 04:22:23;;;;;;;11.77;7.53;;;;;;;11.05;84.59;101896.13;5023896;28;20050;-74
2023/06/06 04:25:09;;;;;;;12.40;7.47;;;;;;;11.09;84.68;101898.69;5004720;28;20062;-74
2023/06/06 04:27:56;;;;;;;15.07;8.15;;;;;;;11.12;84.46;101901.28;5012357;28;20133;-75
2023/06/06 04:30:44;;;;;;;11.15;7.30;;;;;;;11.19;84.35;101902.94;5031196;28;20046;-72
2023/06/06 04:33:31;;;;;;;12.02;8.02;;;;;;;11.19;84.22;101902.06;5035981;28;20049;-73
2023/06/06 04:36:23;;;;;;;15.88;7.82;;;;;;;11.25;84.17;101903.72;5005520;28;20121;-73
2023/06/06 04:39:12;;;;;;;10.80;7.55;;;;;;;11.36;83.73;101898.28;5006441;28;20058;-73
2023/06/06 04:42:00;;;;;;;13.60;7.72;;;;;;;11.37;83.68;101897.38;5018227;28;20042;-74
2023/06/06 04:44:46;;;;;;;10.57;8.02;;;;;;;11.46;83.52;101899.88;5032288;28;20129;-74
2023/06/06 04:47:35;;;;;;;11.40;8.10;;;;;;;11.84;81.92;101902.72;5016571;28;20049;-78
2023/06/06 04:50:20;;;;;;;11.90;7.53;;;;;;;11.78;81.75;101898.41;5018092;28;20145;-77
2023/06/06 04:53:05;;;;;;;13.35;7.53;;;;;;;11.74;81.81;101889.69;4998753;28;20049;-78
2023/06/06 04:55:55;;;;;;;11.98;7.22;;;;;;;11.72;81.94;101894.13;5030284;28;20042;-77
2023/06/06 04:58:42;;;;;;;10.80;7.82;;;;;;;11.72;82.32;101903.78;5031874;28;20054;-76
2023/06/06 05:01:28;;;;;;;10.05;7.63;;;;;;;11.79;81.95;101898.38;5026722;28;20043;-76
2023/06/06 05:04:15;;;;;;;12.95;8.48;;;;;;;11.86;81.29;101903.53;5029044;28;20224;-76
2023/06/06 05:07:00;;;;;;;14.02;7.85;;;;;;;11.89;81.53;101903.50;5027232;28;20046;-76
2023/06/06 05:09:48;;;;;;;14.05;7.70;;;;;;;11.93;81.16;101902.53;5024714;28;20049;-76
2023/06/06 05:12:34;;;;;;;13.88;7.90;;;;;;;12.10;81.05;101905.75;5023434;28;20046;-75
2023/06/06 05:15:19;;;;;;;12.32;7.78;;;;;;;12.31;79.96;101906.22;5028564;28;20060;-75
2023/06/06 05:18:04;;;;;;;10.77;7.20;;;;;;;12.68;79.05;101908.06;5025225;28;20042;-73
2023/06/06 05:20:50;;;;;;;13.05;8.15;;;;;;;14.10;74.19;101901.06;5027209;28;20630;-72
2023/06/06 05:23:35;;;;;;;12.35;7.80;;;;;;;14.26;72.23;101904.13;5026657;28;20050;-72
2023/06/06 05:26:20;;;;;;;13.65;7.68;;;;;;;14.90;70.14;101897.81;5026658;28;20046;-72
2023/06/06 05:29:06;;;;;;;11.05;7.03;;;;;;;16.91;63.58;101894.25;5025691;28;20062;-73
2023/06/06 05:31:51;;;;;;;10.45;6.78;;;;;;;18.28;58.96;101887.53;5024181;28;20050;-73
2023/06/06 05:34:38;;;;;;;16.13;7.45;;;;;;;19.52;56.34;101894.06;5022222;28;20474;-73
2023/06/06 05:37:23;;;;;;;10.10;6.85;;;;;;;20.61;52.35;101887.34;4997093;28;20046;-73
2023/06/06 05:40:09;;;;;;;11.48;6.65;;;;;;;21.38;49.81;101898.16;5014450;28;20046;-73
2023/06/06 05:42:55;;;;;;;11.05;6.53;;;;;;;21.75;47.56;101891.56;5025659;28;20148;-73
2023/06/06 05:45:40;;;;;;;8.05;5.57;;;;;;;22.25;46.76;101894.75;5020759;28;20509;-73
2023/06/06 05:48:30;;;;;;;8.95;5.65;;;;;;;22.43;45.47;101892.75;5039560;28;20046;-73
2023/06/06 05:51:15;;;;;;;10.63;5.43;;;;;;;22.61;44.30;101896.03;5017249;28;20042;-73
2023/06/06 05:54:01;;;;;;;9.68;6.22;;;;;;;22.86;43.62;101891.75;5029284;28;20737;-74
2023/06/06 05:57:01;;;;;;;9.00;6.28;;;;;;;22.97;42.76;101897.28;5033342;28;20042;-73
2023/06/06 05:59:46;;;;;;;7.82;5.53;;;;;;;23.04;42.90;101892.38;5011256;28;20137;-73
2023/06/06 06:02:31;;;;;;;8.68;5.10;;;;;;;23.19;42.15;101890.53;5025717;28;20128;-73
2023/06/06 06:05:20;;;;;;;10.07;5.57;;;;;;;23.12;41.66;101892.72;5010912;28;20049;-74
2023/06/06 06:08:06;;;;;;;10.88;5.57;;;;;;;23.08;42.09;101891.19;5026593;28;20534;-74
2023/06/06 06:10:51;;;;;;;6.88;4.97;;;;;;;23.18;41.56;101889.59;5025156;28;20136;-74
2023/06/06 06:13:36;;;;;;;8.45;5.60;;;;;;;22.86;42.17;101889.06;5027309;28;20374;-73
2023/06/06 06:16:22;;;;;;;9.55;5.78;;;;;;;22.09;43.94;101893.00;5027247;28;20054;-73
2023/06/06 06:19:07;;;;;;;8.93;5.70;;;;;;;19.89;48.27;101892.16;5025452;28;20489;-73
2023/06/06 06:21:53;;;;;;;8.57;5.30;;;;;;;17.98;53.26;101903.16;5009729;28;20042;-72
2023/06/06 06:24:38;;;;;;;8.40;5.20;;;;;;;16.82;57.64;101897.28;5027854;28;20538;-72
2023/06/06 06:27:23;;;;;;;10.38;6.53;;;;;;;16.09;60.41;101908.00;5025840;28;20053;-73
2023/06/06 06:30:10;;;;;;;10.20;6.15;;;;;;;15.63;62.87;101908.72;5036815;28;20124;-73
2023/06/06 06:32:56;;;;;;;9.00;6.60;;;;;;;15.30;64.67;101911.59;5042188;28;20042;-73
2023/06/06 06:35:45;;;;;;;11.27;6.20;;;;;;;15.13;65.32;101909.47;5011218;28;20046;-72
2023/06/06 06:38:30;;;;;;;9.45;6.57;;;;;;;15.10;66.49;101908.72;5022398;28;20050;-72
2023/06/06 06:41:15;;;;;;;9.73;6.63;;;;;;;15.04;66.61;101910.66;4994322;28;20049;-72
2023/06/06 06:44:01;;;;;;;12.38;7.68;;;;;;;15.00;66.76;101911.66;5015014;28;20050;-72
2023/06/06 06:46:46;;;;;;;11.30;6.80;;;;;;;14.98;67.88;101910.84;5027873;28;20139;-73
2023/06/06 06:49:31;;;;;;;14.07;7.13;;;;;;;15.11;67.95;101913.97;5008505;28;20055;-73
2023/06/06 06:52:17;;;;;;;9.50;5.93;;;;;;;15.13;67.62;101912.13;5015395;28;20049;-74
2023/06/06 06:55:04;;;;;;;10.98;6.32;;;;;;;15.21;67.57;101920.72;5022852;28;20046;-73
2023/06/06 06:57:51;;;;;;;9.73;5.88;;;;;;;15.37;67.32;101909.59;5008818;28;20038;-73
2023/06/06 07:00:37;;;;;;;16.90;6.95;;;;;;;15.37;67.42;101912.25;5027602;28;20494;-73
2023/06/06 07:03:22;;;;;;;11.07;6.63;;;;;;;15.56;67.56;101912.50;5024198;28;20075;-73
2023/06/06 07:06:08;;;;;;;10.50;6.07;;;;;;;15.70;66.23;101917.34;5003342;28;20042;-73
2023/06/06 07:08:53;;;;;;;13.18;6.45;;;;;;;15.69;66.17;101920.91;5024521;28;20146;-73
2023/06/06 07:11:39;;;;;;;11.82;6.60;;;;;;;15.71;66.49;101923.53;5009507;28;20046;-73
2023/06/06 07:14:28;;;;;;;9.55;6.45;;;;;;;15.80;66.63;101923.19;5022814;28;20054;-72
2023/06/06 07:17:15;;;;;;;10.27;6.20;;;;;;;15.90;66.40;101916.66;5030343;28;20046;-73
2023/06/06 07:20:04;;;;;;;11.73;6.30;;;;;;;16.01;65.97;101921.63;5028593;28;20824;-73
2023/06/06 07:22:55;;;;;;;11.55;6.40;;;;;;;16.06;65.76;101916.97;5025135;28;20038;-73
2023/06/06 07:25:42;;;;;;;10.80;6.28;;;;;;;16.24;65.51;101925.19;5014123;28;20054;-73
2023/06/06 07:28:27;;;;;;;9.75;6.00;;;;;;;16.28;65.27;101916.19;5012841;28;20054;-73
2023/06/06 07:31:14;;;;;;;13.70;6.40;;;;;;;16.34;65.46;101920.41;5030204;28;20136;-73
2023/06/06 07:34:00;;;;;;;10.25;6.13;;;;;;;16.49;65.09;101909.19;5021421;28;20062;-73
2023/06/06 07:36:45;;;;;;;11.60;5.90;;;;;;;16.67;64.95;101909.41;5029690;28;20565;-73
2023/06/06 07:39:31;;;;;;;10.73;6.30;;;;;;;16.76;63.94;101914.38;5031145;28;20046;-73
2023/06/06 07:42:16;;;;;;;12.23;6.53;;;;;;;16.80;64.78;101904.47;5014598;28;20129;-73
2023/06/06 07:45:06;;;;;;;10.18;5.95;;;;;;;16.94;63.84;101910.13;5030402;28;20073;-73
2023/06/06 07:47:51;;;;;;;8.98;6.20;;;;;;;17.04;63.60;101910.63;5015122;28;20128;-73
2023/06/06 07:50:37;;;;;;;11.82;6.18;;;;;;;17.16;62.82;101903.94;5030485;28;20521;-73
2023/06/06 07:53:23;;;;;;;11.27;6.97;;;;;;;17.26;63.24;101899.09;5028642;28;20038;-73
2023/06/06 07:56:08;;;;;;;11.00;6.20;;;;;;;17.34;63.02;101900.53;5025889;28;20050;-73
2023/06/06 07:58:55;;;;;;;10.95;6.38;;;;;;;17.51;62.94;101899.78;5026255;28;20564;-73
2023/06/06 08:01:42;;;;;;;9.30;6.20;;;;;;;17.69;61.89;101894.59;5027995;28;20046;-73
2023/06/06 08:04:28;;;;;;;19.08;6.75;;;;;;;17.81;62.64;101895.84;5028823;28;20042;-73
2023/06/06 08:07:15;;;;;;;10.60;6.22;;;;;;;17.96;61.32;101897.88;5014259;28;20046;-73
2023/06/06 08:10:00;;;;;;;9.23;5.80;;;;;;;18.00;61.26;101896.81;5015284;28;20122;-73
2023/06/06 08:12:45;;;;;;;9.32;6.05;;;;;;;18.02;61.17;101899.38;5012029;28;20156;-73
2023/06/06 08:15:30;;;;;;;12.27;6.35;;;;;;;18.09;61.08;101891.97;5028848;28;20045;-73
2023/06/06 08:18:16;;;;;;;11.23;6.50;;;;;;;18.27;59.45;101892.94;5029230;28;20514;-73
2023/06/06 08:21:01;;;;;;;16.02;6.97;;;;;;;18.23;59.69;101891.34;5000064;28;20245;-73
2023/06/06 08:23:47;;;;;;;8.77;5.93;;;;;;;18.30;59.60;101895.50;5028676;28;20038;-74
2023/06/06 08:26:32;;;;;;;10.45;6.05;;;;;;;18.35;59.79;101892.59;5012766;28;20557;-73
2023/06/06 08:29:18;;;;;;;11.05;5.53;;;;;;;18.46;60.25;101890.31;5029720;28;20205;-73
2023/06/06 08:32:04;;;;;;;9.10;5.95;;;;;;;18.73;59.20;101895.25;5031184;28;20046;-73
2023/06/06 08:34:50;;;;;;;10.00;5.68;;;;;;;18.98;58.47;101900.31;5030228;28;20212;-73
2023/06/06 08:37:36;;;;;;;9.30;5.90;;;;;;;19.09;57.38;101892.63;5028827;28;20046;-73
2023/06/06 08:40:22;;;;;;;10.82;5.50;;;;;;;19.09;58.30;101889.94;5030244;28;20526;-73
2023/06/06 08:43:07;;;;;;;15.70;6.28;;;;;;;19.27;56.70;101884.63;5013533;28;20199;-74
2023/06/06 08:45:56;;;;;;;15.40;6.13;;;;;;;19.34;56.48;101891.38;5021509;28;20054;-73
2023/06/06 08:48:45;;;;;;;14.63;6.28;;;;;;;19.38;57.20;101882.25;5028590;28;20052;-73
2023/06/06 08:51:31;;;;;;;9.73;6.00;;;;;;;19.57;56.23;101888.47;5025051;28;20776;-73
2023/06/06 08:54:20;;;;;;;8.60;5.85;;;;;;;19.61;55.92;101882.91;5009079;28;20046;-73
2023/06/06 08:57:09;;;;;;;11.07;6.20;;;;;;;19.78;56.43;101889.16;5014072;28;20042;-73
2023/06/06 08:59:55;;;;;;;10.25;5.60;;;;;;;19.95;55.83;101882.94;5027770;28;20768;-73
2023/06/06 09:02:41;;;;;;;7.22;5.78;;;;;;;20.02;55.96;101876.31;5029312;28;20497;-73
2023/06/06 09:05:27;;;;;;;10.88;5.55;;;;;;;20.14;55.91;101885.50;5029540;28;20049;-73
2023/06/06 09:08:13;;;;;;;11.57;6.45;;;;;;;20.32;54.00;101886.28;5030053;28;20038;-73
2023/06/06 09:10:58;;;;;;;11.07;5.53;;;;;;;20.26;54.32;101884.81;5028154;28;20057;-73
2023/06/06 09:13:45;;;;;;;10.73;5.70;;;;;;;20.37;55.11;101876.22;5027808;28;20301;-73
2023/06/06 09:16:32;;;;;;;8.57;5.10;;;;;;;20.55;54.63;101882.31;5028570;28;20041;-73
2023/06/06 09:19:26;;;;;;;10.32;5.57;;;;;;;20.69;54.20;101886.06;5028934;28;20053;-74
2023/06/06 09:22:12;;;;;;;11.02;5.57;;;;;;;20.83;53.82;101883.50;5027564;28;20046;-73
2023/06/06 09:24:58;;;;;;;7.38;5.20;;;;;;;20.95;53.02;101889.94;5009475;28;20055;-73
2023/06/06 09:27:45;;;;;;;9.38;5.90;;;;;;;20.98;52.84;101880.88;5018945;28;20096;-73
2023/06/06 09:30:32;;;;;;;11.38;5.65;;;;;;;21.03;53.33;101884.16;5026357;28;20050;-73
2023/06/06 09:33:17;;;;;;;11.93;5.22;;;;;;;21.22;53.31;101884.81;5024216;28;20896;-73
2023/06/06 09:36:04;;;;;;;10.07;5.95;;;;;;;21.47;51.60;101893.19;5013784;28;20128;-73
2023/06/06 09:38:51;;;;;;;13.77;6.35;;;;;;;21.51;51.70;101881.34;5009892;28;21213;-73
2023/06/06 09:41:46;;;;;;;11.38;5.43;;;;;;;21.50;51.13;101883.16;4999476;28;20046;-73
2023/06/06 09:44:32;;;;;;;10.20;5.90;;;;;;;21.50;50.52;101876.94;5019136;28;20090;-73
2023/06/06 09:47:17;;;;;;;9.23;5.78;;;;;;;21.34;51.46;101879.66;5028366;28;20050;-73
2023/06/06 09:50:03;;;;;;;10.60;5.68;;;;;;;21.43;50.57;101876.44;5028465;28;20049;-74
2023/06/06 09:52:52;;;;;;;9.43;5.20;;;;;;;21.53;50.77;101872.25;5025208;28;20050;-73
2023/06/06 09:55:41;;;;;;;11.63;5.85;;;;;;;21.60;50.74;101874.56;5029250;28;20046;-73
2023/06/06 09:58:29;;;;;;;10.32;5.30;;;;;;;21.71;51.22;101864.06;5027199;28;20058;-74
2023/06/06 10:01:17;;;;;;;14.45;6.05;;;;;;;21.92;50.55;101867.25;5027515;28;20050;-73
2023/06/06 10:04:04;;;;;;;12.55;5.82;;;;;;;22.00;49.57;101861.38;5027881;28;20097;-73
2023/06/06 10:06:53;;;;;;;11.50;5.97;;;;;;;22.03;49.80;101872.78;5028585;28;20038;-73
2023/06/06 10:09:40;;;;;;;10.35;5.70;;;;;;;22.05;49.79;101866.44;5004786;28;20039;-73
2023/06/06 10:12:31;;;;;;;10.48;5.95;;;;;;;22.25;49.51;101866.06;5024606;28;20045;-73
2023/06/06 10:15:18;;;;;;;9.60;5.28;;;;;;;22.37;49.12;101860.84;5026836;28;20550;-73
2023/06/06 10:18:04;;;;;;;12.23;5.43;;;;;;;22.52;48.76;101869.78;5007391;28;20038;-73
2023/06/06 10:20:53;;;;;;;14.65;6.32;;;;;;;22.51;49.06;101857.31;5014865;28;20929;-73
2023/06/06 10:23:39;;;;;;;6.40;4.65;;;;;;;22.62;48.67;101852.97;5012458;28;20042;-73
2023/06/06 10:26:50;;;;;;;11.27;5.70;;;;;;;22.80;47.92;101858.09;5021167;28;20514;-73
2023/06/06 10:30:09;;;;;;;14.27;5.63;;;;;;;22.73;47.87;101857.63;5012626;28;20049;-74
2023/06/06 10:33:27;;;;;;;8.43;5.20;;;;;;;22.75;48.11;101850.34;5010134;28;20046;-73
2023/06/06 10:36:17;;;;;;;14.07;5.75;;;;;;;22.84;48.40;101861.44;5022625;28;20050;-74
2023/06/06 10:39:28;;;;;;;8.48;6.00;;;;;;;22.98;47.10;101850.63;5025194;28;20185;-73
2023/06/06 10:42:15;;;;;;;9.00;5.63;;;;;;;22.88;48.04;101852.22;5026405;28;20061;-73
2023/06/06 10:45:00;;;;;;;10.90;5.30;;;;;;;23.02;47.89;101844.06;5026643;28;20546;-73
2023/06/06 10:47:45;;;;;;;13.55;5.47;;;;;;;23.31;46.95;101841.25;5026263;28;20596;-74
2023/06/06 10:50:35;;;;;;;8.77;5.35;;;;;;;23.49;45.25;101844.50;5009802;28;20117;-73
2023/06/06 10:53:20;;;;;;;9.73;5.55;;;;;;;23.42;46.39;101849.44;5013264;28;20086;-74
2023/06/06 10:56:06;;;;;;;18.48;6.28;;;;;;;23.58;46.25;101841.16;5025324;28;20057;-73
2023/06/06 10:58:52;;;;;;;8.35;5.68;;;;;;;23.57;45.88;101841.28;5027272;28;20096;-74
2023/06/06 11:01:42;;;;;;;10.38;5.32;;;;;;;23.53;46.45;101846.03;5026810;28;20199;-73
2023/06/06 11:04:29;;;;;;;8.32;5.25;;;;;;;23.70;45.73;101841.28;5006059;28;20441;-73
2023/06/06 11:07:16;;;;;;;9.30;5.50;;;;;;;23.79;44.45;101846.00;5025089;28;20061;-73
2023/06/06 11:10:02;;;;;;;18.20;5.38;;;;;;;23.88;44.93;101842.66;5026908;28;20049;-73
2023/06/06 11:12:50;;;;;;;9.88;5.25;;;;;;;23.97;44.40;101843.00;5021509;28;20054;-73
2023/06/06 11:15:36;;;;;;;10.48;5.03;;;;;;;23.89;44.67;101839.00;5025851;28;20503;-74
2023/06/06 11:18:39;;;;;;;9.68;4.95;;;;;;;23.99;44.46;101839.25;5024650;28;20046;-74
2023/06/06 11:21:25;;;;;;;8.85;5.10;;;;;;;24.18;43.66;101837.91;5027860;28;20049;-74
2023/06/06 11:24:12;;;;;;;13.05;4.80;;;;;;;24.16;43.81;101834.47;5027362;28;20034;-74
2023/06/06 11:26:58;;;;;;;12.07;5.00;;;;;;;24.32;44.25;101831.50;5012533;28;20054;-74
2023/06/06 11:29:45;;;;;;;12.57;4.97;;;;;;;24.44;43.83;101830.63;5011262;28;20141;-74
2023/06/06 11:32:33;;;;;;;10.52;5.15;;;;;;;24.49;43.39;101830.28;5026910;28;20512;-74
2023/06/06 11:35:21;;;;;;;8.85;5.15;;;;;;;24.55;43.69;101823.56;5027441;28;20061;-73
2023/06/06 11:38:06;;;;;;;12.95;4.75;;;;;;;24.75;43.05;101833.75;5025973;28;20058;-74
2023/06/06 11:40:52;;;;;;;9.48;4.85;;;;;;;24.72;43.43;101822.34;5025812;28;20038;-74
2023/06/06 11:43:48;;;;;;;11.07;5.10;;;;;;;24.86;42.76;101822.13;5026973;28;20065;-74
2023/06/06 11:46:51;;;;;;;8.32;4.50;;;;;;;24.79;43.13;101821.75;5024786;28;20192;-74
2023/06/06 11:49:42;;;;;;;7.65;4.82;;;;;;;24.91;42.57;101824.47;5027554;28;20229;-73
2023/06/06 11:52:28;;;;;;;8.77;4.38;;;;;;;25.00;42.44;101825.63;5027352;28;20591;-74
2023/06/06 11:55:14;;;;;;;9.40;4.45;;;;;;;25.16;41.61;101818.06;5025297;28;21132;-75
2023/06/06 11:58:03;;;;;;;9.20;4.15;;;;;;;25.11;41.53;101818.41;5017644;28;20746;-74
2023/06/06 12:00:49;;;;;;;15.32;5.03;;;;;;;25.19;42.17;101815.13;5008600;28;20418;-74
2023/06/06 12:03:38;;;;;;;6.65;3.78;;;;;;;25.23;41.61;101821.16;5028129;28;20046;-74
2023/06/06 12:06:24;;;;;;;7.65;4.28;;;;;;;25.22;41.21;101814.03;5029812;28;20038;-74
2023/06/06 12:09:14;;;;;;;10.55;4.20;;;;;;;25.36;41.21;101811.13;5029651;28;20054;-74
2023/06/06 12:12:04;;;;;;;9.27;4.20;;;;;;;25.55;41.00;101812.41;5030534;28;20321;-74
2023/06/06 12:14:59;;;;;;;6.85;3.80;;;;;;;25.64;40.60;101808.97;5028708;28;20042;-74
2023/06/06 12:17:45;;;;;;;26.90;4.80;;;;;;;25.63;40.82;101798.31;5009979;28;20149;-74
2023/06/06 12:20:30;;;;;;;9.88;3.72;;;;;;;25.68;40.70;101807.78;5009988;28;20042;-74
2023/06/06 12:23:30;;;;;;;8.15;3.80;;;;;;;25.86;40.30;101804.56;5009665;28;20529;-74
2023/06/06 12:26:16;;;;;;;4.43;3.22;;;;;;;26.02;39.59;101796.09;5009351;28;20054;-74
2023/06/06 12:29:07;;;;;;;7.25;3.40;;;;;;;26.16;38.92;101794.97;5013687;28;20058;-74
2023/06/06 12:32:18;;;;;;;33.08;5.00;;;;;;;26.26;38.75;101795.94;5028424;28;20496;-75
2023/06/06 12:35:05;;;;;;;14.68;3.45;;;;;;;26.30;38.86;101801.94;5000428;28;20046;-75
2023/06/06 12:37:51;;;;;;;12.02;3.28;;;;;;;26.39;38.81;101784.97;5013421;28;20868;-74
2023/06/06 12:40:37;;;;;;;7.93;3.35;;;;;;;26.55;38.15;101794.53;5026896;28;20046;-74
2023/06/06 12:43:22;;;;;;;9.70;3.20;;;;;;;26.57;38.21;101792.53;5023647;28;20054;-74
2023/06/06 12:46:10;;;;;;;76.88;8.70;;;;;;;26.63;37.48;101789.31;5026411;28;20616;-74
2023/06/06 12:48:55;;;;;;;8.55;3.42;;;;;;;26.59;37.07;101788.72;5013287;28;20058;-75
2023/06/06 12:51:42;;;;;;;9.60;3.40;;;;;;;26.53;37.13;101786.50;5028876;28;20050;-75
2023/06/06 12:54:27;;;;;;;10.27;3.70;;;;;;;26.47;37.39;101779.78;5027570;28;20085;-74